Terminal Aerodrome Forecast
Issued by NWS

Current Version | Previous Version | Text Only | Print | Product List | Glossary On
Versions: 1 2 3 4 5 6 7 8 9 10 11 12 13 14 15 16 17 18 19 20 21 22 23 24 25 26 27 28
000
FTUS45 KREV 311700
TAFCXP
TAF
KCXP 311739Z 3118/0118 VRB03KT P6SM SCT100 BKN140
     FM312200 VRB06KT P6SM VCTS SCT080CB BKN140
     FM010200 25007KT P6SM SCT140=

USA.gov is the U.S. government's official web portal to all federal, state and local government web resources and services.